Time;durP1;ratioP1;P1;durP2;ratioP2;P2;SDS_P1;SDS_P2;PMS_P1;PMS_P2;Temp;Humidity;BMP_temperature;BMP_pressure;BME280_temperature;BME280_humidity;BME280_pressure;Samples;Min_cycle;Max_cycle;Signal;HPM_P1;HPM_P2
2023/03/20 00:01:15;;;;;;;1.17;0.90;;;10.70;99.90;;;;;;5087535;28;20051;-73
2023/03/20 00:03:41;;;;;;;0.95;0.70;;;10.60;99.90;;;;;;5081569;28;20095;-77
2023/03/20 00:06:20;;;;;;;1.40;0.63;;;10.60;99.90;;;;;;5085348;28;20032;-76
2023/03/20 00:08:47;;;;;;;0.65;0.55;;;10.60;99.90;;;;;;5081650;28;20017;-76
2023/03/20 00:11:29;;;;;;;2.22;0.70;;;10.60;99.90;;;;;;5091713;28;20020;-74
2023/03/20 00:13:56;;;;;;;;;;;10.60;99.90;;;;;;5084940;28;20036;-75
2023/03/20 00:16:24;;;;;;;1.42;0.60;;;10.50;99.90;;;;;;5080843;28;19949;-76
2023/03/20 00:18:51;;;;;;;1.85;0.80;;;10.50;99.90;;;;;;5087334;28;20028;-75
2023/03/20 00:21:18;;;;;;;2.80;0.60;;;10.50;99.90;;;;;;5093527;28;20191;-77
2023/03/20 00:23:44;;;;;;;1.05;0.60;;;10.40;99.90;;;;;;5081314;28;20472;-75
2023/03/20 00:26:17;;;;;;;0.90;0.50;;;10.40;99.90;;;;;;5087869;28;20024;-76
2023/03/20 00:28:43;;;;;;;1.13;0.63;;;10.40;99.90;;;;;;5073715;28;20052;-76
2023/03/20 00:31:31;;;;;;;0.70;0.70;;;10.40;99.90;;;;;;5078204;28;20020;-79
2023/03/20 00:34:08;;;;;;;1.08;0.60;;;10.40;99.90;;;;;;5079021;28;20044;-75
2023/03/20 00:36:34;;;;;;;0.80;0.60;;;10.40;99.90;;;;;;5088581;28;20097;-79
2023/03/20 00:39:00;;;;;;;2.25;0.55;;;10.40;99.90;;;;;;5076915;28;20457;-75
2023/03/20 00:41:31;;;;;;;1.55;0.68;;;10.40;99.90;;;;;;5084020;28;20507;-75
2023/03/20 00:44:08;;;;;;;2.45;0.70;;;10.30;99.90;;;;;;5084771;28;20031;-76
2023/03/20 00:46:37;;;;;;;2.08;0.65;;;10.40;99.90;;;;;;5075938;28;20610;-75
2023/03/20 00:49:02;;;;;;;1.02;0.80;;;10.30;99.90;;;;;;5078323;28;20031;-76
2023/03/20 00:51:28;;;;;;;1.10;0.63;;;10.30;99.90;;;;;;5084080;28;20025;-75
2023/03/20 00:53:54;;;;;;;1.05;0.47;;;10.30;99.90;;;;;;5084154;28;20050;-78
2023/03/20 00:56:41;;;;;;;0.70;0.57;;;10.30;99.90;;;;;;5077607;28;20024;-75
2023/03/20 00:59:16;;;;;;;1.17;0.55;;;10.30;99.90;;;;;;5063388;28;20027;-78
2023/03/20 01:01:42;;;;;;;0.70;0.60;;;10.30;99.90;;;;;;5081635;28;20473;-77
2023/03/20 01:04:13;;;;;;;0.73;0.60;;;10.30;99.90;;;;;;5085945;28;20024;-75
2023/03/20 01:06:38;;;;;;;1.52;0.60;;;10.30;99.90;;;;;;5075638;28;20031;-75
2023/03/20 01:09:04;;;;;;;1.10;0.70;;;10.30;99.90;;;;;;5092051;28;20024;-75
2023/03/20 01:11:30;;;;;;;1.05;0.60;;;10.30;99.90;;;;;;5083640;28;20415;-75
2023/03/20 01:13:56;;;;;;;3.75;0.77;;;10.30;99.90;;;;;;5084730;28;20024;-77
2023/03/20 01:16:24;;;;;;;0.93;0.60;;;10.30;99.90;;;;;;5075260;28;20067;-75
2023/03/20 01:18:51;;;;;;;1.48;0.80;;;10.30;99.90;;;;;;5076284;28;20024;-75
2023/03/20 01:21:18;;;;;;;1.88;0.65;;;10.30;99.90;;;;;;5085454;28;20081;-77
2023/03/20 01:23:43;;;;;;;1.83;0.60;;;10.30;99.90;;;;;;5083874;28;20027;-76
2023/03/20 01:26:22;;;;;;;1.13;0.70;;;10.30;99.90;;;;;;5077167;28;20329;-76
2023/03/20 01:28:50;;;;;;;0.77;0.45;;;10.30;99.90;;;;;;5088961;28;20111;-77
2023/03/20 01:31:16;;;;;;;0.95;0.60;;;10.30;99.90;;;;;;5079618;28;20024;-80
2023/03/20 01:33:42;;;;;;;0.85;0.57;;;10.30;99.90;;;;;;5081976;28;20035;-76
2023/03/20 01:36:16;;;;;;;0.52;0.50;;;10.30;99.90;;;;;;5086744;28;20024;-76
2023/03/20 01:38:42;;;;;;;1.67;0.60;;;10.30;99.90;;;;;;5074329;28;20047;-76
2023/03/20 01:41:16;;;;;;;0.90;0.60;;;10.30;99.90;;;;;;5076516;28;20017;-75
2023/03/20 01:43:43;;;;;;;1.02;0.73;;;10.30;99.90;;;;;;5091798;28;20085;-75
2023/03/20 01:46:23;;;;;;;1.35;0.90;;;10.30;99.90;;;;;;5083136;28;20016;-75
2023/03/20 01:48:49;;;;;;;0.80;0.60;;;10.30;99.90;;;;;;5088878;28;20046;-77
2023/03/20 01:51:15;;;;;;;0.85;0.63;;;10.30;99.90;;;;;;5078195;28;20025;-75
2023/03/20 01:53:42;;;;;;;0.98;0.65;;;10.40;99.90;;;;;;5080202;28;20374;-74
2023/03/20 01:56:07;;;;;;;1.45;0.80;;;10.40;99.90;;;;;;5084967;28;20520;-77
2023/03/20 01:58:40;;;;;;;0.82;0.73;;;10.40;99.90;;;;;;5074569;28;20227;-75
2023/03/20 02:01:09;;;;;;;1.92;0.80;;;10.30;99.90;;;;;;5086799;28;20474;-75
2023/03/20 02:03:34;;;;;;;1.10;0.90;;;10.30;99.90;;;;;;5080732;28;20164;-78
2023/03/20 02:06:00;;;;;;;2.72;1.20;;;10.30;99.90;;;;;;5081388;28;20532;-87
2023/03/20 02:08:31;;;;;;;1.50;1.00;;;10.30;99.90;;;;;;5076669;28;20024;-75
2023/03/20 02:10:59;;;;;;;1.50;1.10;;;10.30;99.90;;;;;;5064010;28;20023;-76
2023/03/20 02:13:30;;;;;;;1.75;0.93;;;10.30;99.90;;;;;;5087122;28;20056;-75
2023/03/20 02:16:01;;;;;;;1.58;1.00;;;10.30;99.90;;;;;;5081603;28;20016;-75
2023/03/20 02:18:27;;;;;;;2.40;1.05;;;10.30;99.90;;;;;;5091621;28;20106;-77
2023/03/20 02:21:14;;;;;;;1.88;1.00;;;10.30;99.90;;;;;;5078714;28;20088;-75
2023/03/20 02:23:47;;;;;;;1.25;1.10;;;10.30;99.90;;;;;;5096412;28;20020;-76
2023/03/20 02:26:38;;;;;;;1.95;1.08;;;10.30;99.90;;;;;;5080064;28;20361;-77
2023/03/20 02:29:12;;;;;;;1.55;0.98;;;10.30;99.90;;;;;;5065130;28;20554;-76
2023/03/20 02:32:21;;;;;;;2.35;0.98;;;10.40;99.90;;;;;;5086216;28;20365;-77
2023/03/20 02:34:47;;;;;;;2.20;1.38;;;10.30;99.90;;;;;;5092296;28;20032;-76
2023/03/20 02:37:49;;;;;;;1.83;1.23;;;10.30;99.90;;;;;;5080944;28;20093;-76
2023/03/20 02:40:20;;;;;;;;;;;10.20;99.90;;;;;;5079649;28;20098;-78
2023/03/20 02:43:24;;;;;;;1.85;1.30;;;10.30;99.90;;;;;;5092246;28;19900;-75
2023/03/20 02:46:12;;;;;;;4.53;1.30;;;10.30;99.90;;;;;;5082002;28;20099;-75
2023/03/20 02:49:00;;;;;;;2.05;1.52;;;10.30;99.90;;;;;;5091175;28;20024;-76
2023/03/20 02:51:39;;;;;;;2.90;1.70;;;10.30;99.90;;;;;;5082572;28;20088;-75
2023/03/20 02:54:16;;;;;;;2.65;1.80;;;10.20;99.90;;;;;;5093800;28;20032;-76
2023/03/20 02:56:58;;;;;;;5.03;1.73;;;10.20;99.90;;;;;;5077744;28;20376;-76
2023/03/20 02:59:50;;;;;;;3.20;1.90;;;10.20;99.90;;;;;;5086234;28;20025;-76
2023/03/20 03:02:21;;;;;;;4.53;2.47;;;10.10;99.90;;;;;;5090092;28;20043;-78
2023/03/20 03:04:52;;;;;;;2.42;1.88;;;10.20;99.90;;;;;;5078786;28;20035;-77
2023/03/20 03:07:20;;;;;;;2.40;1.90;;;10.10;99.90;;;;;;5087332;28;20127;-76
2023/03/20 03:09:54;;;;;;;2.75;2.00;;;10.10;99.90;;;;;;5085393;28;20469;-78
2023/03/20 03:12:26;;;;;;;3.83;2.40;;;10.10;99.90;;;;;;5078043;28;20139;-76
2023/03/20 03:14:55;;;;;;;3.05;2.35;;;10.00;99.90;;;;;;5060868;28;20042;-76
2023/03/20 03:17:24;;;;;;;3.78;2.53;;;10.00;99.90;;;;;;5084073;28;20173;-77
2023/03/20 03:19:54;;;;;;;2.95;2.20;;;10.10;99.90;;;;;;5084204;28;20099;-80
2023/03/20 03:22:20;;;;;;;4.47;2.50;;;10.00;99.90;;;;;;5073727;28;20111;-77
2023/03/20 03:24:48;;;;;;;5.05;3.20;;;10.00;99.90;;;;;;5091027;28;20115;-77
2023/03/20 03:27:33;;;;;;;5.20;3.33;;;10.00;99.90;;;;;;5075140;28;20021;-78
2023/03/20 03:30:03;;;;;;;3.72;2.65;;;10.00;99.90;;;;;;5087522;28;20026;-77
2023/03/20 03:32:40;;;;;;;4.63;2.97;;;10.00;99.90;;;;;;5078716;28;20028;-77
2023/03/20 03:35:13;;;;;;;4.72;3.33;;;10.00;99.90;;;;;;5087686;28;20111;-75
2023/03/20 03:37:48;;;;;;;6.07;3.40;;;10.00;99.90;;;;;;5083780;28;20042;-77
2023/03/20 03:40:23;;;;;;;4.75;3.30;;;10.00;99.90;;;;;;5079510;28;20021;-76
2023/03/20 03:42:57;;;;;;;4.57;3.38;;;10.00;99.90;;;;;;5091217;28;20404;-77
2023/03/20 03:45:45;;;;;;;6.80;3.10;;;10.00;99.90;;;;;;5079344;28;20024;-78
2023/03/20 03:48:16;;;;;;;7.97;3.85;;;10.00;99.90;;;;;;5087142;28;20028;-81
2023/03/20 03:50:47;;;;;;;5.90;3.67;;;10.00;99.90;;;;;;5078238;28;20025;-76
2023/03/20 03:53:18;;;;;;;5.13;3.28;;;10.00;99.90;;;;;;5086521;28;20028;-76
2023/03/20 03:55:49;;;;;;;6.18;3.88;;;10.00;99.90;;;;;;5083355;28;20024;-76
2023/03/20 03:58:31;;;;;;;6.00;3.53;;;9.90;99.90;;;;;;5077829;28;20515;-76
2023/03/20 04:01:01;;;;;;;7.10;3.78;;;9.90;99.90;;;;;;5061907;28;20263;-77
2023/03/20 04:03:32;;;;;;;8.13;3.80;;;9.90;99.90;;;;;;5085192;28;20029;-79
2023/03/20 04:05:59;;;;;;;5.95;3.95;;;9.90;99.90;;;;;;5087022;28;20024;-76
2023/03/20 04:08:25;;;;;;;6.85;4.20;;;9.90;99.90;;;;;;5077194;28;20028;-76
2023/03/20 04:10:51;;;;;;;6.50;3.88;;;9.90;99.90;;;;;;5090793;28;20449;-76
2023/03/20 04:13:16;;;;;;;6.43;3.80;;;9.90;99.90;;;;;;5079477;28;20050;-77
2023/03/20 04:15:42;;;;;;;6.72;4.35;;;9.90;99.90;;;;;;5081374;28;20485;-77
2023/03/20 04:18:18;;;;;;;5.40;3.63;;;9.90;99.90;;;;;;5086807;28;20056;-77
2023/03/20 04:20:45;;;;;;;8.50;4.35;;;9.90;99.90;;;;;;5093207;28;20020;-76
2023/03/20 04:23:10;;;;;;;5.70;3.75;;;9.90;99.90;;;;;;5087492;28;20035;-76
2023/03/20 04:25:36;;;;;;;6.90;3.85;;;9.90;99.90;;;;;;5083496;28;20060;-77
2023/03/20 04:28:02;;;;;;;8.23;4.25;;;9.90;99.90;;;;;;5079991;28;20032;-74
2023/03/20 04:30:28;;;;;;;8.75;4.47;;;9.90;99.90;;;;;;5071694;28;20021;-75
2023/03/20 04:32:53;;;;;;;7.80;4.22;;;9.90;99.90;;;;;;5077733;28;20484;-74
2023/03/20 04:35:19;;;;;;;7.85;4.40;;;9.90;99.90;;;;;;5075571;28;20512;-75
2023/03/20 04:37:44;;;;;;;8.63;4.63;;;9.90;99.90;;;;;;5091158;28;20043;-75
2023/03/20 04:40:11;;;;;;;6.97;4.05;;;9.80;99.90;;;;;;5092368;28;20068;-75
2023/03/20 04:42:37;;;;;;;9.25;4.50;;;9.90;99.90;;;;;;5092749;28;20475;-74
2023/03/20 04:45:04;;;;;;;7.20;4.57;;;9.90;99.90;;;;;;5093954;28;20012;-74
2023/03/20 04:47:29;;;;;;;7.88;4.60;;;9.90;99.90;;;;;;5094144;28;20445;-75
2023/03/20 04:49:55;;;;;;;8.38;4.53;;;9.90;99.90;;;;;;5093891;28;20038;-75
2023/03/20 04:52:20;;;;;;;11.15;5.18;;;9.90;99.90;;;;;;5091966;28;20020;-75
2023/03/20 04:54:46;;;;;;;8.30;4.78;;;9.80;99.90;;;;;;5093625;28;20028;-75
2023/03/20 04:57:12;;;;;;;8.68;5.38;;;9.80;99.90;;;;;;5092063;28;20022;-75
2023/03/20 04:59:37;;;;;;;9.70;5.35;;;9.80;99.90;;;;;;5093766;28;20433;-75
2023/03/20 05:02:03;;;;;;;8.32;5.40;;;9.80;99.90;;;;;;5093237;28;20099;-73
2023/03/20 05:04:29;;;;;;;7.93;5.13;;;9.80;99.90;;;;;;5091808;28;20024;-75
2023/03/20 05:06:55;;;;;;;8.77;5.43;;;9.80;99.90;;;;;;5092392;28;20088;-74
2023/03/20 05:09:21;;;;;;;8.45;5.35;;;9.80;99.90;;;;;;5093147;28;20468;-75
2023/03/20 05:11:46;;;;;;;9.02;5.60;;;9.80;99.90;;;;;;5092131;28;20023;-75
2023/03/20 05:14:12;;;;;;;10.30;5.32;;;9.80;99.90;;;;;;5091676;28;20020;-75
2023/03/20 05:16:38;;;;;;;8.63;5.32;;;9.80;99.90;;;;;;5093309;28;20506;-75
2023/03/20 05:19:04;;;;;;;10.55;6.10;;;9.80;99.90;;;;;;5092395;28;20028;-75
2023/03/20 05:21:29;;;;;;;10.43;6.78;;;9.80;99.90;;;;;;5091829;28;20047;-77
2023/03/20 05:23:55;;;;;;;10.52;5.40;;;9.80;99.90;;;;;;5093296;28;20107;-77
2023/03/20 05:26:21;;;;;;;8.55;5.70;;;9.90;99.90;;;;;;5091790;28;20024;-77
2023/03/20 05:28:46;;;;;;;10.73;6.13;;;9.90;99.90;;;;;;5093410;28;20028;-78
2023/03/20 05:31:12;;;;;;;9.95;5.97;;;9.90;99.90;;;;;;5092872;28;20411;-77
2023/03/20 05:33:38;;;;;;;10.80;5.68;;;9.90;99.90;;;;;;5093404;28;20032;-77
2023/03/20 05:36:04;;;;;;;11.45;6.85;;;9.90;99.90;;;;;;5092308;28;20024;-77
2023/03/20 05:38:30;;;;;;;12.05;6.55;;;9.90;99.90;;;;;;5091478;28;20039;-77
2023/03/20 05:40:59;;;;;;;11.50;6.50;;;9.80;99.90;;;;;;5084216;28;20036;-74
2023/03/20 05:43:25;;;;;;;13.65;7.47;;;9.80;99.90;;;;;;5071515;28;20024;-75
2023/03/20 05:45:51;;;;;;;11.70;7.03;;;9.80;99.90;;;;;;5071997;28;20021;-75
2023/03/20 05:48:17;;;;;;;12.38;7.03;;;9.90;99.90;;;;;;5072286;28;20021;-75
2023/03/20 05:50:43;;;;;;;13.77;7.45;;;9.90;99.90;;;;;;5072023;28;20032;-75
2023/03/20 05:53:08;;;;;;;10.88;6.53;;;9.90;99.90;;;;;;5071603;28;20024;-88
2023/03/20 05:55:34;;;;;;;11.50;6.70;;;9.90;99.90;;;;;;5071824;28;20455;-76
2023/03/20 05:58:00;;;;;;;12.27;6.93;;;9.90;99.90;;;;;;5071891;28;20067;-76
2023/03/20 06:00:25;;;;;;;10.90;6.70;;;10.00;99.90;;;;;;5071315;28;20123;-76
2023/03/20 06:02:51;;;;;;;13.15;7.35;;;10.00;99.90;;;;;;5071585;28;20035;-76
2023/03/20 06:05:17;;;;;;;15.18;7.18;;;10.00;99.90;;;;;;5072490;28;20056;-76
2023/03/20 06:07:42;;;;;;;13.93;6.45;;;10.10;99.90;;;;;;5072651;28;20515;-76
2023/03/20 06:10:09;;;;;;;11.65;6.45;;;10.10;99.90;;;;;;5071751;28;20020;-76
2023/03/20 06:12:35;;;;;;;12.82;7.20;;;10.10;99.90;;;;;;5072801;28;20020;-77
2023/03/20 06:15:01;;;;;;;14.73;7.55;;;10.10;99.90;;;;;;5071593;28;20028;-76
2023/03/20 06:17:26;;;;;;;13.63;6.63;;;10.10;99.90;;;;;;5070937;28;20032;-76
2023/03/20 06:19:52;;;;;;;12.45;7.20;;;10.10;99.90;;;;;;5071674;28;20403;-75
2023/03/20 06:22:18;;;;;;;11.25;6.55;;;10.10;99.90;;;;;;5071017;28;20052;-77
2023/03/20 06:24:43;;;;;;;14.43;7.00;;;10.10;99.90;;;;;;5072731;28;20021;-75
2023/03/20 06:27:09;;;;;;;13.55;7.47;;;10.10;99.90;;;;;;5072843;28;20455;-76
2023/03/20 06:29:35;;;;;;;16.33;7.13;;;10.10;99.90;;;;;;5072251;28;20454;-76
2023/03/20 06:32:00;;;;;;;14.20;6.95;;;10.10;99.90;;;;;;5072486;28;20020;-75
2023/03/20 06:34:26;;;;;;;13.07;6.93;;;10.00;99.90;;;;;;5070737;28;20043;-75
2023/03/20 06:36:52;;;;;;;13.65;6.90;;;10.10;99.90;;;;;;5072183;28;20044;-76
2023/03/20 06:39:18;;;;;;;12.15;6.80;;;10.00;99.90;;;;;;5070812;28;20020;-76
2023/03/20 06:41:43;;;;;;;13.15;7.10;;;10.10;99.90;;;;;;5071137;28;20024;-74
2023/03/20 06:44:09;;;;;;;14.35;7.22;;;10.10;99.90;;;;;;5071146;28;20032;-76
2023/03/20 06:46:35;;;;;;;15.43;7.88;;;10.10;99.90;;;;;;5071895;28;20048;-76
2023/03/20 06:49:00;;;;;;;16.02;8.50;;;10.10;99.90;;;;;;5071137;28;20447;-75
2023/03/20 06:51:26;;;;;;;12.88;7.38;;;10.10;99.90;;;;;;5071878;28;20028;-76
2023/03/20 06:53:51;;;;;;;17.13;8.07;;;10.10;99.90;;;;;;5075494;28;20471;-75
2023/03/20 06:56:17;;;;;;;14.07;7.40;;;10.10;99.90;;;;;;5075854;28;20419;-76
2023/03/20 06:58:43;;;;;;;16.98;8.95;;;10.20;99.90;;;;;;5075951;28;20027;-76
2023/03/20 07:01:14;;;;;;;16.23;8.65;;;10.10;99.90;;;;;;5075719;28;20068;-75
2023/03/20 07:03:40;;;;;;;15.27;8.32;;;10.20;99.90;;;;;;5075651;28;20028;-76
2023/03/20 07:06:06;;;;;;;17.23;7.60;;;10.20;99.90;;;;;;5074405;28;20039;-75
2023/03/20 07:08:32;;;;;;;15.27;7.70;;;10.30;99.90;;;;;;5073730;28;20024;-75
2023/03/20 07:10:58;;;;;;;17.30;8.55;;;10.40;99.90;;;;;;5080105;28;20027;-75
2023/03/20 07:13:25;;;;;;;17.33;8.48;;;10.30;99.90;;;;;;5084384;28;20016;-75
2023/03/20 07:15:51;;;;;;;17.75;8.85;;;10.30;99.90;;;;;;5078403;28;20461;-76
2023/03/20 07:18:17;;;;;;;17.10;8.68;;;10.30;99.90;;;;;;5073751;28;20029;-76
2023/03/20 07:20:43;;;;;;;16.17;8.70;;;10.40;99.90;;;;;;5074101;28;20022;-76
2023/03/20 07:23:09;;;;;;;16.90;8.75;;;10.30;99.90;;;;;;5073990;28;20480;-76
2023/03/20 07:25:35;;;;;;;17.48;8.52;;;10.30;99.90;;;;;;5074851;28;20016;-75
2023/03/20 07:28:00;;;;;;;18.50;8.52;;;10.30;99.90;;;;;;5075319;28;20028;-76
2023/03/20 07:30:26;;;;;;;18.33;9.02;;;10.30;99.90;;;;;;5074787;28;20567;-76
2023/03/20 07:32:52;;;;;;;16.60;8.05;;;10.30;99.90;;;;;;5073766;28;20036;-75
2023/03/20 07:35:17;;;;;;;17.65;8.15;;;10.20;99.90;;;;;;5073454;28;20035;-75
2023/03/20 07:37:43;;;;;;;17.00;9.55;;;10.30;99.90;;;;;;5075081;28;20040;-75
2023/03/20 07:40:11;;;;;;;14.30;7.80;;;10.30;99.90;;;;;;5073805;28;20024;-74
2023/03/20 07:42:37;;;;;;;15.38;8.63;;;10.30;99.90;;;;;;5074060;28;20437;-74
2023/03/20 07:45:03;;;;;;;15.30;7.78;;;10.30;99.90;;;;;;5074734;28;20041;-74
2023/03/20 07:47:28;;;;;;;15.20;7.60;;;10.40;99.90;;;;;;5072839;28;20426;-75
2023/03/20 07:49:54;;;;;;;14.98;7.93;;;10.50;99.90;;;;;;5074873;28;20037;-74
2023/03/20 07:52:19;;;;;;;13.43;7.55;;;10.50;99.90;;;;;;5073038;28;20024;-76
2023/03/20 07:54:45;;;;;;;12.93;6.68;;;10.60;99.90;;;;;;5073564;28;20028;-75
2023/03/20 07:57:10;;;;;;;14.00;7.20;;;10.60;99.90;;;;;;5073550;28;20530;-75
2023/03/20 07:59:36;;;;;;;12.32;6.65;;;10.70;99.90;;;;;;5072919;28;20029;-76
2023/03/20 08:02:02;;;;;;;15.13;7.55;;;10.80;99.90;;;;;;5073683;28;20483;-76
2023/03/20 08:04:27;;;;;;;14.43;7.07;;;10.80;99.90;;;;;;5074103;28;20021;-76
2023/03/20 08:06:53;;;;;;;13.70;6.82;;;10.80;99.90;;;;;;5074535;28;20099;-76
2023/03/20 08:09:19;;;;;;;13.73;7.57;;;10.80;99.90;;;;;;5077124;28;20013;-84
2023/03/20 08:11:45;;;;;;;22.50;7.82;;;10.80;99.90;;;;;;5073678;28;20060;-75
2023/03/20 08:14:10;;;;;;;13.07;7.25;;;10.70;99.90;;;;;;5074049;28;20032;-75
2023/03/20 08:16:36;;;;;;;15.35;6.82;;;10.70;99.90;;;;;;5072472;28;20029;-75
2023/03/20 08:19:04;;;;;;;14.05;7.43;;;10.70;99.90;;;;;;5074428;28;20032;-75
2023/03/20 08:21:31;;;;;;;15.00;7.55;;;10.80;99.90;;;;;;5072413;28;20033;-75
2023/03/20 08:23:57;;;;;;;11.73;6.47;;;11.00;99.90;;;;;;5072550;28;20024;-75
2023/03/20 08:26:24;;;;;;;11.93;6.78;;;11.10;99.90;;;;;;5072188;28;20429;-75
2023/03/20 08:28:50;;;;;;;11.80;6.85;;;11.10;99.90;;;;;;5072519;28;20021;-74
2023/03/20 08:31:16;;;;;;;12.85;7.13;;;11.10;99.90;;;;;;5072820;28;20020;-74
2023/03/20 08:33:44;;;;;;;13.93;6.85;;;11.20;99.90;;;;;;5078013;28;20028;-75
2023/03/20 08:36:10;;;;;;;15.65;7.25;;;11.20;99.90;;;;;;5086791;28;20062;-75
2023/03/20 08:38:36;;;;;;;13.73;6.95;;;11.20;99.90;;;;;;5077353;28;20044;-75
2023/03/20 08:41:02;;;;;;;12.05;7.18;;;11.20;99.90;;;;;;5085318;28;20058;-74
2023/03/20 08:43:28;;;;;;;13.68;7.65;;;11.20;99.90;;;;;;5091774;28;20050;-73
2023/03/20 08:45:54;;;;;;;12.25;7.32;;;11.30;99.90;;;;;;5077378;28;20454;-78
2023/03/20 08:48:19;;;;;;;11.73;6.65;;;11.20;99.90;;;;;;5073046;28;20020;-82
2023/03/20 08:50:45;;;;;;;10.25;6.05;;;11.20;99.90;;;;;;5078831;28;20105;-73
2023/03/20 08:53:11;;;;;;;11.35;7.07;;;11.20;99.90;;;;;;5092546;28;20027;-74
2023/03/20 08:55:36;;;;;;;12.05;6.90;;;11.20;99.90;;;;;;5091770;28;20123;-73
2023/03/20 08:58:02;;;;;;;14.07;6.95;;;11.10;99.90;;;;;;5079370;28;20020;-75
2023/03/20 09:00:28;;;;;;;11.27;6.30;;;11.10;99.90;;;;;;5079030;28;20082;-77
2023/03/20 09:02:54;;;;;;;12.35;6.30;;;11.10;99.90;;;;;;5079293;28;20020;-74
2023/03/20 09:05:19;;;;;;;10.65;5.95;;;11.10;99.90;;;;;;5073669;28;20365;-73
2023/03/20 09:07:45;;;;;;;9.85;5.50;;;11.10;99.90;;;;;;5084038;28;20109;-74
2023/03/20 09:10:11;;;;;;;8.05;4.80;;;11.20;99.90;;;;;;5075615;28;20055;-74
2023/03/20 09:12:37;;;;;;;9.05;5.30;;;11.30;99.90;;;;;;5078313;28;20024;-75
2023/03/20 09:15:05;;;;;;;8.32;4.78;;;11.30;99.90;;;;;;5081543;28;20048;-75
2023/03/20 09:17:31;;;;;;;8.80;5.38;;;11.40;99.90;;;;;;5086278;28;20065;-74
2023/03/20 09:19:57;;;;;;;7.35;4.20;;;11.50;99.90;;;;;;5085568;28;20027;-78
2023/03/20 09:22:24;;;;;;;9.50;5.43;;;11.40;99.90;;;;;;5076576;28;20353;-74
2023/03/20 09:24:49;;;;;;;9.45;5.45;;;11.30;99.90;;;;;;5080706;28;20095;-75
2023/03/20 09:27:15;;;;;;;8.15;4.72;;;11.20;99.90;;;;;;5076096;28;20442;-75
2023/03/20 09:29:42;;;;;;;9.07;5.85;;;11.10;99.90;;;;;;5076577;28;20024;-74
2023/03/20 09:32:11;;;;;;;8.60;4.68;;;11.10;99.90;;;;;;5083652;28;20070;-74
2023/03/20 09:34:36;;;;;;;9.05;4.70;;;11.10;99.90;;;;;;5082917;28;20081;-74
2023/03/20 09:37:03;;;;;;;8.40;5.03;;;11.10;99.90;;;;;;5084620;28;20045;-74
2023/03/20 09:39:29;;;;;;;6.78;4.35;;;11.00;99.90;;;;;;5086581;28;20050;-75
2023/03/20 09:41:58;;;;;;;8.05;4.25;;;11.10;99.90;;;;;;5092827;28;20024;-74
2023/03/20 09:44:40;;;;;;;8.32;4.30;;;11.20;99.90;;;;;;5080127;28;20025;-74
2023/03/20 09:47:25;;;;;;;10.77;5.10;;;11.20;99.90;;;;;;5076535;28;20028;-75
2023/03/20 09:50:24;;;;;;;7.85;4.20;;;11.20;99.90;;;;;;5084634;28;20144;-74
2023/03/20 09:52:58;;;;;;;7.35;3.85;;;11.10;99.90;;;;;;5049017;28;20064;-75
2023/03/20 09:55:40;;;;;;;7.63;3.53;;;11.10;99.90;;;;;;5065729;28;20020;-79
2023/03/20 09:58:29;;;;;;;7.15;3.55;;;11.20;99.90;;;;;;5075406;28;20054;-75
2023/03/20 10:00:57;;;;;;;8.20;4.20;;;11.30;99.90;;;;;;5079180;28;20029;-77
2023/03/20 10:03:41;;;;;;;7.18;3.92;;;11.40;99.90;;;;;;5084330;28;20073;-74
2023/03/20 10:06:12;;;;;;;7.53;3.78;;;11.30;99.90;;;;;;5074413;28;20037;-74
2023/03/20 10:08:38;;;;;;;6.88;3.50;;;11.40;99.90;;;;;;5079576;28;20016;-74
2023/03/20 10:11:22;;;;;;;6.68;3.40;;;11.50;99.90;;;;;;5074484;28;20020;-74
2023/03/20 10:14:24;;;;;;;6.68;3.97;;;11.70;99.90;;;;;;5084233;28;20016;-78
2023/03/20 10:17:24;;;;;;;6.25;3.20;;;11.70;99.90;;;;;;5047980;28;20385;-74
2023/03/20 10:19:59;;;;;;;5.60;3.35;;;11.70;99.90;;;;;;5074398;28;20492;-74
2023/03/20 10:22:33;;;;;;;7.05;3.45;;;11.80;99.90;;;;;;5074100;28;20044;-74
2023/03/20 10:25:26;;;;;;;6.13;3.03;;;11.90;99.90;;;;;;5082509;28;20035;-73
2023/03/20 10:27:58;;;;;;;7.70;3.72;;;12.10;99.90;;;;;;5092383;28;20023;-75
2023/03/20 10:30:37;;;;;;;;;;;12.40;99.90;;;;;;5075878;28;20021;-79
2023/03/20 10:33:26;;;;;;;8.35;4.28;;;12.40;99.90;;;;;;5067589;28;19908;-76
2023/03/20 10:36:28;;;;;;;6.47;3.40;;;12.30;99.90;;;;;;5078910;28;20476;-75
2023/03/20 10:39:07;;;;;;;5.95;2.65;;;12.40;99.90;;;;;;5081682;28;20028;-75
2023/03/20 10:41:36;;;;;;;5.97;3.35;;;12.30;99.90;;;;;;5076666;28;20024;-77
2023/03/20 10:44:03;;;;;;;6.53;3.28;;;12.30;99.90;;;;;;5078206;28;20036;-75
2023/03/20 10:46:34;;;;;;;6.45;3.08;;;12.20;99.90;;;;;;5081864;28;20017;-77
2023/03/20 10:49:18;;;;;;;6.20;3.07;;;12.30;99.90;;;;;;5081109;28;20023;-75
2023/03/20 10:51:48;;;;;;;6.97;3.13;;;12.60;99.90;;;;;;5078976;28;20453;-75
2023/03/20 10:54:37;;;;;;;5.78;3.00;;;12.90;99.90;;;;;;5080197;28;20024;-75
2023/03/20 10:57:05;;;;;;;6.13;2.90;;;12.90;99.90;;;;;;5081003;28;20020;-76
2023/03/20 10:59:43;;;;;;;5.45;2.55;;;12.90;99.90;;;;;;5075016;28;20028;-77
2023/03/20 11:02:14;;;;;;;4.55;2.22;;;13.10;99.90;;;;;;5079447;28;20032;-75
2023/03/20 11:04:40;;;;;;;4.07;2.00;;;13.10;99.90;;;;;;5093539;28;20032;-74
2023/03/20 11:07:14;;;;;;;5.00;2.53;;;13.20;99.90;;;;;;5077467;28;20022;-75
2023/03/20 11:09:40;;;;;;;5.05;2.08;;;13.10;99.90;;;;;;5093748;28;20038;-74
2023/03/20 11:12:16;;;;;;;3.25;2.10;;;13.10;99.90;;;;;;5083056;28;20017;-75
2023/03/20 11:14:42;;;;;;;4.20;1.88;;;13.20;99.90;;;;;;5089622;28;20024;-77
2023/03/20 11:17:10;;;;;;;3.60;1.70;;;13.30;99.90;;;;;;5094121;28;20034;-74
2023/03/20 11:19:38;;;;;;;3.75;1.98;;;13.40;99.90;;;;;;5083112;28;20090;-75
2023/03/20 11:22:27;;;;;;;3.85;2.17;;;13.30;99.90;;;;;;5078955;28;20021;-75
2023/03/20 11:25:00;;;;;;;4.03;1.80;;;13.50;99.90;;;;;;5086955;28;20025;-75
2023/03/20 11:27:33;;;;;;;4.13;1.90;;;13.50;99.90;;;;;;5066000;28;20090;-75
2023/03/20 11:30:06;;;;;;;5.10;2.30;;;13.60;99.90;;;;;;5082668;28;20024;-75
2023/03/20 11:32:31;;;;;;;4.38;1.90;;;13.70;99.90;;;;;;5075905;28;20024;-75
2023/03/20 11:35:21;;;;;;;4.20;2.20;;;13.80;99.90;;;;;;5087476;28;20026;-75
2023/03/20 11:37:50;;;;;;;3.92;2.15;;;13.90;99.90;;;;;;5082206;28;20083;-75
2023/03/20 11:40:24;;;;;;;3.95;2.03;;;13.90;99.90;;;;;;5084159;28;20074;-76
2023/03/20 11:43:02;;;;;;;5.35;2.28;;;13.80;99.90;;;;;;5083215;28;20031;-76
2023/03/20 11:45:47;;;;;;;4.45;2.08;;;13.70;99.90;;;;;;5068431;28;20016;-76
2023/03/20 11:48:24;;;;;;;4.60;2.83;;;13.70;99.90;;;;;;5090303;28;20031;-76
2023/03/20 11:51:02;;;;;;;4.93;2.40;;;13.60;99.90;;;;;;5080318;28;20047;-76
2023/03/20 11:53:32;;;;;;;4.15;2.65;;;13.60;99.90;;;;;;5078587;28;20024;-75
2023/03/20 11:56:12;;;;;;;3.70;2.30;;;13.70;99.90;;;;;;5078527;28;20104;-78
2023/03/20 11:58:55;;;;;;;4.88;2.70;;;13.70;99.90;;;;;;5083246;28;20069;-76
2023/03/20 12:01:21;;;;;;;5.57;2.85;;;13.80;99.90;;;;;;5073795;28;20035;-75
2023/03/20 12:03:54;;;;;;;5.38;2.05;;;13.80;99.90;;;;;;5077617;28;20035;-76
2023/03/20 12:06:23;;;;;;;4.93;2.10;;;13.80;99.90;;;;;;5078475;28;20043;-86
2023/03/20 12:09:24;;;;;;;4.63;2.22;;;13.90;99.90;;;;;;5082023;28;20015;-75
2023/03/20 12:12:01;;;;;;;3.20;2.30;;;14.00;99.90;;;;;;5059766;28;20029;-77
2023/03/20 12:14:45;;;;;;;4.63;2.38;;;14.00;99.90;;;;;;5077841;28;20028;-80
2023/03/20 12:17:32;;;;;;;3.75;2.00;;;14.10;99.90;;;;;;5087400;28;20111;-78
2023/03/20 12:20:29;;;;;;;3.30;2.15;;;14.30;99.90;;;;;;5078746;28;20048;-77
2023/03/20 12:23:05;;;;;;;3.28;2.20;;;14.40;99.70;;;;;;5080755;28;20028;-76
2023/03/20 12:25:46;;;;;;;4.20;2.45;;;14.50;99.60;;;;;;5085538;28;20031;-75
2023/03/20 12:28:35;;;;;;;3.63;2.28;;;14.70;99.70;;;;;;5076595;28;20078;-75
2023/03/20 12:31:18;;;;;;;5.18;2.63;;;14.90;99.90;;;;;;5081805;28;20359;-76
2023/03/20 12:34:10;;;;;;;3.95;2.55;;;15.10;99.60;;;;;;5085751;28;20047;-75
2023/03/20 12:36:40;;;;;;;4.63;2.40;;;15.20;98.80;;;;;;5082679;28;20024;-75
2023/03/20 12:39:15;;;;;;;3.10;2.00;;;15.40;98.10;;;;;;5083938;28;20027;-75
2023/03/20 12:42:18;;;;;;;3.22;2.22;;;15.50;97.30;;;;;;5073337;28;20024;-75
2023/03/20 12:44:52;;;;;;;3.70;2.47;;;15.40;96.30;;;;;;5079314;28;20019;-75
2023/03/20 12:47:33;;;;;;;4.03;2.53;;;15.80;96.80;;;;;;5084898;28;20437;-76
2023/03/20 12:50:32;;;;;;;9.07;3.25;;;16.10;95.40;;;;;;5075954;28;20234;-76
2023/03/20 12:53:26;;;;;;;3.35;2.50;;;16.20;94.70;;;;;;5083813;28;20031;-75
2023/03/20 12:56:05;;;;;;;3.92;2.55;;;15.90;94.20;;;;;;5087000;28;20077;-76
2023/03/20 12:58:41;;;;;;;5.60;2.50;;;15.70;95.20;;;;;;5083221;28;20439;-76
2023/03/20 13:01:41;;;;;;;4.78;2.42;;;15.80;94.30;;;;;;5084537;28;20070;-76
2023/03/20 13:04:18;;;;;;;3.42;2.03;;;15.60;94.80;;;;;;5086200;28;20071;-77
2023/03/20 13:06:58;;;;;;;5.10;2.10;;;15.60;95.00;;;;;;5080221;28;20031;-75